createdAt,value
2023-01-27T00:00:27.082Z,7.43
2023-01-27T00:02:53.688Z,8.82
2023-01-27T00:05:20.072Z,9.80
2023-01-27T00:07:46.481Z,8.90
2023-01-27T00:10:15.669Z,9.02
2023-01-27T00:13:04.023Z,9.38
2023-01-27T00:15:31.559Z,9.95
2023-01-27T00:17:58.009Z,8.32
2023-01-27T00:20:43.278Z,9.35
2023-01-27T00:23:41.755Z,9.02
2023-01-27T00:26:11.220Z,9.23
2023-01-27T00:28:38.959Z,8.35
2023-01-27T00:31:06.260Z,9.00
2023-01-27T00:33:32.670Z,9.48
2023-01-27T00:36:00.758Z,8.95
2023-01-27T00:38:28.498Z,9.38
2023-01-27T00:41:13.508Z,10.25
2023-01-27T00:43:40.143Z,9.43
2023-01-27T00:46:06.691Z,7.95
2023-01-27T00:48:33.164Z,7.57
2023-01-27T00:50:59.953Z,7.22
2023-01-27T00:53:26.516Z,8.88
2023-01-27T00:55:52.894Z,8.02
2023-01-27T00:58:19.221Z,7.85
2023-01-27T01:00:45.541Z,7.57
2023-01-27T01:03:11.893Z,6.95
2023-01-27T01:05:38.329Z,6.60
2023-01-27T01:08:04.674Z,6.28
2023-01-27T01:10:31.048Z,6.60
2023-01-27T01:12:57.395Z,7.28
2023-01-27T01:15:23.758Z,7.82
2023-01-27T01:17:50.107Z,7.32
2023-01-27T01:20:16.560Z,7.80
2023-01-27T01:22:42.935Z,6.63
2023-01-27T01:25:09.499Z,7.40
2023-01-27T01:27:36.044Z,5.97
2023-01-27T01:30:03.009Z,6.80
2023-01-27T01:32:29.392Z,6.63
2023-01-27T01:34:55.819Z,6.25
2023-01-27T01:37:22.455Z,6.90
2023-01-27T01:39:48.829Z,7.78
2023-01-27T01:42:15.181Z,6.50
2023-01-27T01:44:45.430Z,5.95
2023-01-27T01:47:18.361Z,6.55
2023-01-27T01:49:47.030Z,6.55
2023-01-27T01:52:17.144Z,5.93
2023-01-27T01:54:46.298Z,6.47
2023-01-27T01:57:17.644Z,6.88
2023-01-27T02:00:06.779Z,4.70
2023-01-27T02:02:33.543Z,5.05
2023-01-27T02:05:24.367Z,5.88
2023-01-27T02:07:59.750Z,6.53
2023-01-27T02:10:26.107Z,5.05
2023-01-27T02:12:52.496Z,5.68
2023-01-27T02:15:19.090Z,5.28
2023-01-27T02:17:45.609Z,6.70
2023-01-27T02:20:38.027Z,5.07
2023-01-27T02:23:39.356Z,5.43
2023-01-27T02:26:21.721Z,5.63
2023-01-27T02:29:00.507Z,5.47
2023-01-27T02:31:26.994Z,5.28
2023-01-27T02:33:57.457Z,6.15
2023-01-27T02:36:23.986Z,4.57
2023-01-27T02:38:52.012Z,4.78
2023-01-27T02:41:27.579Z,4.60
2023-01-27T02:43:54.431Z,2.30
2023-01-27T02:46:20.915Z,4.38
2023-01-27T02:48:47.637Z,3.47
2023-01-27T02:51:14.281Z,4.00
2023-01-27T02:53:41.061Z,3.60
2023-01-27T02:56:07.632Z,3.75
2023-01-27T02:58:34.137Z,4.57
2023-01-27T03:01:00.502Z,5.00
2023-01-27T03:03:26.936Z,4.25
2023-01-27T03:05:53.496Z,4.45
2023-01-27T03:08:19.889Z,3.85
2023-01-27T03:10:50.545Z,3.67
2023-01-27T03:13:17.067Z,3.92
2023-01-27T03:16:01.921Z,4.30
2023-01-27T03:18:28.407Z,4.60
2023-01-27T03:21:01.058Z,5.00
2023-01-27T03:23:27.937Z,3.70
2023-01-27T03:25:54.330Z,4.32
2023-01-27T03:28:20.869Z,4.03
2023-01-27T03:30:47.330Z,5.28
2023-01-27T03:33:13.791Z,4.38
2023-01-27T03:35:48.242Z,3.22
2023-01-27T03:38:34.536Z,4.05
2023-01-27T03:41:22.861Z,4.15
2023-01-27T03:44:07.755Z,3.53
2023-01-27T03:46:34.122Z,2.92
2023-01-27T03:49:00.927Z,3.53
2023-01-27T03:51:27.331Z,4.65
2023-01-27T03:53:53.818Z,3.58
2023-01-27T03:56:21.331Z,4.68
2023-01-27T03:58:49.240Z,5.07
2023-01-27T04:01:18.875Z,4.60
2023-01-27T04:04:04.807Z,5.32
2023-01-27T04:06:52.193Z,4.50
2023-01-27T04:09:24.054Z,3.45
2023-01-27T04:11:57.908Z,4.88
2023-01-27T04:14:43.129Z,5.00
2023-01-27T04:17:12.436Z,5.43
2023-01-27T04:19:38.945Z,4.63
2023-01-27T04:22:06.373Z,5.32
2023-01-27T04:24:33.034Z,3.10
2023-01-27T04:27:01.440Z,4.85
2023-01-27T04:29:30.539Z,5.10
2023-01-27T04:31:57.744Z,4.40
2023-01-27T04:34:25.710Z,5.30
2023-01-27T04:36:52.321Z,4.47
2023-01-27T04:39:18.942Z,4.57
2023-01-27T04:41:45.734Z,5.93
2023-01-27T04:44:12.764Z,5.93
2023-01-27T04:46:39.136Z,4.50
2023-01-27T04:49:06.206Z,4.13
2023-01-27T04:51:32.816Z,4.15
2023-01-27T04:53:59.270Z,4.32
2023-01-27T04:56:34.164Z,3.75
2023-01-27T04:59:02.110Z,4.88
2023-01-27T05:01:29.028Z,4.03
2023-01-27T05:03:55.491Z,2.90
2023-01-27T05:06:22.163Z,2.45
2023-01-27T05:08:48.803Z,4.18
2023-01-27T05:11:15.546Z,4.10
2023-01-27T05:13:42.064Z,3.63
2023-01-27T05:16:18.474Z,4.30
2023-01-27T05:18:46.767Z,3.67
2023-01-27T05:23:40.634Z,3.42
2023-01-27T05:26:14.144Z,3.60
2023-01-27T05:28:43.530Z,4.03
2023-01-27T05:31:18.609Z,3.78
2023-01-27T05:33:46.223Z,3.55
2023-01-27T05:36:14.354Z,3.42
2023-01-27T05:38:41.228Z,3.95
2023-01-27T05:41:09.094Z,3.10
2023-01-27T05:43:37.691Z,3.95
2023-01-27T05:46:21.096Z,3.75
2023-01-27T05:48:49.421Z,4.30
2023-01-27T05:53:44.049Z,2.88
2023-01-27T05:56:13.418Z,2.60
2023-01-27T05:58:40.274Z,4.40
2023-01-27T06:01:08.959Z,3.67
2023-01-27T06:03:35.860Z,3.55
2023-01-27T06:06:03.513Z,3.55
2023-01-27T06:08:30.002Z,3.80
2023-01-27T06:10:56.379Z,4.18
2023-01-27T06:13:23.307Z,4.95
2023-01-27T06:15:50.167Z,4.20
2023-01-27T06:18:18.046Z,4.13
2023-01-27T06:20:45.126Z,4.30
2023-01-27T06:23:12.546Z,3.92
2023-01-27T06:25:40.827Z,6.07
2023-01-27T06:30:36.897Z,3.78
2023-01-27T06:33:03.967Z,4.28
2023-01-27T06:35:30.738Z,4.25
2023-01-27T06:38:00.879Z,4.93
2023-01-27T06:40:28.272Z,5.70
2023-01-27T06:42:54.768Z,3.95
2023-01-27T06:45:21.553Z,4.15
2023-01-27T06:47:58.183Z,4.07
2023-01-27T06:50:25.665Z,4.10
2023-01-27T06:52:52.603Z,4.10
2023-01-27T06:55:19.465Z,4.10
2023-01-27T06:57:49.376Z,4.50
2023-01-27T07:00:16.767Z,5.03
2023-01-27T07:02:43.860Z,4.75
2023-01-27T07:05:10.565Z,4.57
2023-01-27T07:07:37.251Z,5.63
2023-01-27T07:10:04.192Z,4.03
2023-01-27T07:12:30.604Z,4.28
2023-01-27T07:14:56.906Z,4.07
2023-01-27T07:17:23.269Z,4.32
2023-01-27T07:19:49.600Z,3.05
2023-01-27T07:22:15.972Z,3.88
2023-01-27T07:24:42.362Z,4.65
2023-01-27T07:27:08.697Z,4.20
2023-01-27T07:29:35.042Z,5.00
2023-01-27T07:32:01.412Z,4.10
2023-01-27T07:34:27.818Z,4.28
2023-01-27T07:36:54.165Z,4.35
2023-01-27T07:39:20.695Z,3.47
2023-01-27T07:41:49.048Z,4.20
2023-01-27T07:44:15.400Z,4.38
2023-01-27T07:46:41.748Z,4.10
2023-01-27T07:49:08.162Z,3.45
2023-01-27T07:51:34.849Z,3.30
2023-01-27T07:54:02.170Z,4.05
2023-01-27T07:56:28.591Z,3.92
2023-01-27T07:58:55.756Z,4.20
2023-01-27T08:01:22.159Z,3.97
2023-01-27T08:03:48.584Z,3.58
2023-01-27T08:06:15.002Z,3.72
2023-01-27T08:08:41.796Z,2.92
2023-01-27T08:11:09.107Z,4.18
2023-01-27T08:13:36.414Z,2.78
2023-01-27T08:16:08.532Z,3.08
2023-01-27T08:18:35.162Z,3.67
2023-01-27T08:21:03.302Z,4.65
2023-01-27T08:23:29.687Z,4.10
2023-01-27T08:26:01.940Z,2.88
2023-01-27T08:28:30.263Z,3.63
2023-01-27T08:31:13.176Z,4.00
2023-01-27T08:33:40.470Z,3.92
2023-01-27T08:36:12.823Z,3.35
2023-01-27T08:38:39.579Z,3.53
2023-01-27T08:41:13.805Z,3.97
2023-01-27T08:43:40.649Z,4.32
2023-01-27T08:46:08.029Z,3.70
2023-01-27T08:48:34.967Z,3.95
2023-01-27T08:51:01.878Z,4.13
2023-01-27T08:53:28.451Z,3.25
2023-01-27T08:55:59.447Z,2.97
2023-01-27T08:58:25.835Z,3.83
2023-01-27T09:00:52.230Z,3.75
2023-01-27T09:03:18.890Z,3.72
2023-01-27T09:05:47.184Z,4.22
2023-01-27T09:08:13.558Z,3.80
2023-01-27T09:10:40.548Z,4.10
2023-01-27T09:13:08.212Z,3.20
2023-01-27T09:15:36.143Z,4.10
2023-01-27T09:18:04.706Z,2.97
2023-01-27T09:20:34.326Z,2.90
2023-01-27T09:23:01.032Z,3.33
2023-01-27T09:25:27.353Z,3.85
2023-01-27T09:27:55.279Z,3.38
2023-01-27T09:30:21.753Z,3.80
2023-01-27T09:32:48.131Z,4.00
2023-01-27T09:35:14.925Z,3.45
2023-01-27T09:37:49.805Z,4.20
2023-01-27T09:43:07.711Z,2.88
2023-01-27T09:45:48.676Z,3.92
2023-01-27T09:51:25.056Z,1.38
2023-01-27T09:54:11.641Z,2.80
2023-01-27T09:56:46.603Z,4.07
2023-01-27T09:59:30.049Z,2.65
2023-01-27T10:02:16.516Z,1.50
2023-01-27T10:05:13.637Z,2.90
2023-01-27T10:07:51.752Z,2.85
2023-01-27T10:10:42.447Z,3.08
2023-01-27T10:13:23.265Z,3.67
2023-01-27T10:15:59.990Z,3.70
2023-01-27T10:18:45.297Z,3.33
2023-01-27T10:21:18.152Z,3.22
2023-01-27T10:24:04.624Z,3.75
2023-01-27T10:26:36.412Z,2.83
2023-01-27T10:29:10.480Z,3.20
2023-01-27T10:31:48.675Z,3.25
2023-01-27T10:34:57.314Z,2.90
2023-01-27T10:38:02.767Z,2.97
2023-01-27T10:40:52.357Z,3.25
2023-01-27T10:44:03.518Z,3.05
2023-01-27T10:46:44.835Z,2.90
2023-01-27T10:49:23.209Z,2.65
2023-01-27T10:52:13.250Z,2.85
2023-01-27T10:54:43.608Z,2.40
2023-01-27T10:57:26.691Z,1.73
2023-01-27T11:00:41.935Z,2.80
2023-01-27T11:03:07.349Z,2.50
2023-01-27T11:05:48.367Z,2.22
2023-01-27T11:08:20.169Z,2.33
2023-01-27T11:11:11.830Z,2.40
2023-01-27T11:13:38.781Z,1.73
2023-01-27T11:16:08.927Z,2.45
2023-01-27T11:18:37.763Z,1.67
2023-01-27T11:21:06.091Z,2.65
2023-01-27T11:23:45.875Z,2.50
2023-01-27T11:26:23.428Z,2.10
2023-01-27T11:29:15.242Z,2.45
2023-01-27T11:31:48.556Z,2.03
2023-01-27T11:34:23.683Z,2.13
2023-01-27T11:36:50.806Z,2.55
2023-01-27T11:39:18.141Z,1.90
2023-01-27T11:41:53.715Z,2.30
2023-01-27T11:44:26.548Z,2.08
2023-01-27T11:46:54.036Z,2.20
2023-01-27T11:49:29.349Z,2.47
2023-01-27T11:52:05.495Z,0.98
2023-01-27T11:54:46.229Z,1.50
2023-01-27T11:57:18.850Z,1.80
2023-01-27T11:59:46.766Z,1.90
2023-01-27T12:02:33.393Z,1.95
2023-01-27T12:05:04.759Z,1.30
2023-01-27T12:07:43.545Z,2.22
2023-01-27T12:10:43.133Z,2.40
2023-01-27T12:13:24.119Z,2.20
2023-01-27T12:18:25.374Z,1.25
2023-01-27T12:21:00.572Z,1.83
2023-01-27T12:23:27.502Z,2.25
2023-01-27T12:25:56.450Z,2.15
2023-01-27T12:28:34.902Z,1.88
2023-01-27T12:31:11.560Z,2.08
2023-01-27T12:33:41.069Z,1.92
2023-01-27T12:36:14.303Z,1.80
2023-01-27T12:38:47.787Z,1.45
2023-01-27T12:41:21.203Z,2.22
2023-01-27T12:43:54.655Z,1.70
2023-01-27T12:46:24.699Z,1.98
2023-01-27T12:48:52.890Z,1.33
2023-01-27T12:53:48.642Z,1.58
2023-01-27T12:56:18.824Z,1.48
2023-01-27T12:58:54.274Z,1.38
2023-01-27T13:01:20.525Z,1.60
2023-01-27T13:03:53.462Z,1.20
2023-01-27T13:06:21.418Z,1.30
2023-01-27T13:08:49.931Z,1.42
2023-01-27T13:11:18.997Z,0.88
2023-01-27T13:13:51.593Z,1.13
2023-01-27T13:16:24.631Z,1.40
2023-01-27T13:18:59.054Z,1.23
2023-01-27T13:21:29.929Z,1.60
2023-01-27T13:23:57.887Z,0.95
2023-01-27T13:26:32.072Z,1.30
2023-01-27T13:29:12.259Z,1.17
2023-01-27T13:32:04.348Z,1.10
2023-01-27T13:34:41.400Z,1.02
2023-01-27T13:37:28.274Z,1.00
2023-01-27T13:40:02.476Z,1.55
2023-01-27T13:42:36.216Z,1.60
2023-01-27T13:45:33.513Z,1.20
2023-01-27T13:48:04.403Z,1.83
2023-01-27T13:50:33.379Z,0.65
2023-01-27T13:53:00.409Z,1.70
2023-01-27T13:55:56.058Z,1.30
2023-01-27T13:58:45.708Z,1.30
2023-01-27T14:01:34.045Z,1.20
2023-01-27T14:04:20.504Z,1.50
2023-01-27T14:07:18.688Z,0.98
2023-01-27T14:09:54.406Z,1.23
2023-01-27T14:12:34.165Z,1.10
2023-01-27T14:15:18.488Z,1.50
2023-01-27T14:17:59.967Z,1.20
2023-01-27T14:20:47.583Z,1.48
2023-01-27T14:23:51.828Z,0.90
2023-01-27T14:26:48.852Z,1.27
2023-01-27T14:29:44.223Z,1.13
2023-01-27T14:32:55.031Z,0.55
2023-01-27T14:35:42.367Z,1.38
2023-01-27T14:41:07.288Z,0.95
2023-01-27T14:43:39.904Z,0.98
2023-01-27T14:46:22.631Z,0.98
2023-01-27T14:48:57.926Z,0.93
2023-01-27T14:51:41.478Z,1.10
2023-01-27T14:54:26.660Z,1.02
2023-01-27T14:57:22.050Z,0.90
2023-01-27T15:00:16.376Z,1.30
2023-01-27T15:03:08.957Z,1.08
2023-01-27T15:05:58.245Z,1.15
2023-01-27T15:08:34.301Z,1.17
2023-01-27T15:11:43.695Z,1.88
2023-01-27T15:14:54.210Z,1.00
2023-01-27T15:17:37.278Z,1.17
2023-01-27T15:20:25.702Z,1.08
2023-01-27T15:23:03.454Z,1.45
2023-01-27T15:25:42.048Z,0.90
2023-01-27T15:28:13.408Z,1.13
2023-01-27T15:30:40.900Z,1.38
2023-01-27T15:33:44.849Z,1.05
2023-01-27T15:36:30.524Z,0.93
2023-01-27T15:39:09.045Z,0.95
2023-01-27T15:41:35.885Z,1.40
2023-01-27T15:44:03.177Z,1.30
2023-01-27T15:46:37.220Z,1.27
2023-01-27T15:49:06.753Z,1.60
2023-01-27T15:51:36.999Z,1.50
2023-01-27T15:54:03.875Z,1.67
2023-01-27T15:56:46.758Z,1.55
2023-01-27T15:59:16.312Z,1.55
2023-01-27T16:01:42.871Z,1.25
2023-01-27T16:04:23.528Z,1.60
2023-01-27T16:07:03.891Z,1.35
2023-01-27T16:09:43.251Z,1.90
2023-01-27T16:12:32.041Z,1.58
2023-01-27T16:15:01.056Z,1.70
2023-01-27T16:17:32.314Z,1.50
2023-01-27T16:20:20.841Z,1.42
2023-01-27T16:22:51.574Z,1.42
2023-01-27T16:25:26.652Z,1.70
2023-01-27T16:28:14.844Z,1.60
2023-01-27T16:30:48.813Z,1.50
2023-01-27T16:33:19.212Z,1.60
2023-01-27T16:35:49.849Z,1.70
2023-01-27T16:38:28.964Z,1.63
2023-01-27T16:40:58.424Z,1.75
2023-01-27T16:43:46.460Z,1.52
2023-01-27T16:46:30.303Z,0.82
2023-01-27T16:48:56.627Z,1.70
2023-01-27T16:51:26.204Z,1.60
2023-01-27T16:53:54.010Z,1.60
2023-01-27T16:56:25.225Z,1.75
2023-01-27T16:58:54.280Z,1.23
2023-01-27T17:01:28.002Z,1.88
2023-01-27T17:04:00.651Z,2.08
2023-01-27T17:06:30.130Z,1.98
2023-01-27T17:08:56.680Z,2.00
2023-01-27T17:11:32.824Z,1.90
2023-01-27T17:14:06.164Z,1.75
2023-01-27T17:16:35.859Z,1.67
2023-01-27T17:19:09.608Z,2.03
2023-01-27T17:21:41.758Z,1.75
2023-01-27T17:24:16.227Z,1.73
2023-01-27T17:29:15.652Z,1.70
2023-01-27T17:31:42.896Z,1.75
2023-01-27T17:34:15.749Z,2.28
2023-01-27T17:37:08.229Z,2.25
2023-01-27T17:39:38.230Z,2.03
2023-01-27T17:42:05.605Z,2.45
2023-01-27T17:44:32.361Z,2.55
2023-01-27T17:47:02.209Z,2.13
2023-01-27T17:49:29.024Z,2.58
2023-01-27T17:51:57.084Z,2.70
2023-01-27T17:54:37.467Z,1.58
2023-01-27T17:57:06.721Z,2.85
2023-01-27T17:59:33.703Z,2.20
2023-01-27T18:02:04.750Z,2.30
2023-01-27T18:04:38.208Z,2.17
2023-01-27T18:07:04.550Z,2.40
2023-01-27T18:09:31.303Z,2.38
2023-01-27T18:12:01.286Z,2.30
2023-01-27T18:14:32.812Z,1.92
2023-01-27T18:17:27.452Z,2.00
2023-01-27T18:19:55.835Z,1.83
2023-01-27T18:22:25.877Z,2.60
2023-01-27T18:24:59.854Z,2.80
2023-01-27T18:27:35.181Z,3.22
2023-01-27T18:30:21.884Z,2.65
2023-01-27T18:32:51.180Z,2.05
2023-01-27T18:35:31.739Z,2.10
2023-01-27T18:37:59.847Z,2.55
2023-01-27T18:42:55.533Z,2.00
2023-01-27T18:45:21.931Z,1.70
2023-01-27T18:47:48.306Z,2.10
2023-01-27T18:50:15.636Z,2.60
2023-01-27T18:52:42.559Z,2.38
2023-01-27T18:55:19.195Z,2.63
2023-01-27T18:57:47.311Z,2.30
2023-01-27T19:02:43.133Z,1.80
2023-01-27T19:05:16.547Z,1.67
2023-01-27T19:07:43.044Z,2.65
2023-01-27T19:10:14.793Z,2.30
2023-01-27T19:12:41.215Z,2.30
2023-01-27T19:15:08.867Z,2.78
2023-01-27T19:17:35.253Z,2.55
2023-01-27T19:20:01.647Z,2.15
2023-01-27T19:22:28.049Z,1.98
2023-01-27T19:24:54.357Z,1.80
2023-01-27T19:27:20.754Z,2.58
2023-01-27T19:29:47.103Z,2.30
2023-01-27T19:32:14.531Z,1.73
2023-01-27T19:34:41.240Z,2.30
2023-01-27T19:37:25.678Z,1.42
2023-01-27T19:39:52.057Z,1.75
2023-01-27T19:42:18.398Z,2.42
2023-01-27T19:44:44.764Z,1.85
2023-01-27T19:47:12.315Z,1.95
2023-01-27T19:49:39.283Z,1.95
2023-01-27T19:52:05.691Z,2.30
2023-01-27T19:54:32.044Z,2.17
2023-01-27T19:56:58.371Z,2.42
2023-01-27T19:59:25.117Z,2.05
2023-01-27T20:01:51.550Z,1.90
2023-01-27T20:04:17.972Z,2.50
2023-01-27T20:06:44.315Z,2.40
2023-01-27T20:09:11.043Z,2.08
2023-01-27T20:11:43.411Z,2.25
2023-01-27T20:14:23.623Z,2.45
2023-01-27T20:16:50.157Z,2.10
2023-01-27T20:19:16.899Z,2.00
2023-01-27T20:21:44.511Z,2.50
2023-01-27T20:24:14.634Z,1.80
2023-01-27T20:26:41.040Z,2.10
2023-01-27T20:29:07.393Z,1.90
2023-01-27T20:31:33.789Z,2.40
2023-01-27T20:34:00.283Z,2.35
2023-01-27T20:36:26.697Z,1.80
2023-01-27T20:38:53.042Z,2.10
2023-01-27T20:41:22.353Z,2.38
2023-01-27T20:43:48.864Z,1.80
2023-01-27T20:46:17.507Z,2.45
2023-01-27T20:48:44.356Z,1.40
2023-01-27T20:51:13.676Z,2.08
2023-01-27T20:53:45.226Z,2.40
2023-01-27T20:56:20.252Z,1.45
2023-01-27T20:58:47.201Z,2.10
2023-01-27T21:01:16.111Z,2.25
2023-01-27T21:03:43.349Z,1.50
2023-01-27T21:06:11.407Z,2.20
2023-01-27T21:08:38.203Z,2.10
2023-01-27T21:11:06.705Z,2.08
2023-01-27T21:13:33.156Z,2.05
2023-01-27T21:16:01.654Z,2.05
2023-01-27T21:18:28.313Z,1.75
2023-01-27T21:20:55.736Z,2.22
2023-01-27T21:23:23.412Z,1.77
2023-01-27T21:25:50.931Z,2.03
2023-01-27T21:28:18.019Z,2.47
2023-01-27T21:30:44.560Z,2.17
2023-01-27T21:33:11.528Z,2.38
2023-01-27T21:35:38.233Z,1.90
2023-01-27T21:38:04.725Z,1.85
2023-01-27T21:40:33.100Z,1.83
2023-01-27T21:43:17.835Z,1.80
2023-01-27T21:45:44.208Z,1.67
2023-01-27T21:48:10.600Z,2.33
2023-01-27T21:50:37.398Z,2.22
2023-01-27T21:53:12.657Z,1.85
2023-01-27T21:55:39.013Z,1.98
2023-01-27T21:58:05.365Z,2.47
2023-01-27T22:00:31.889Z,1.90
2023-01-27T22:03:00.315Z,2.30
2023-01-27T22:05:27.822Z,2.58
2023-01-27T22:07:54.546Z,2.13
2023-01-27T22:10:25.864Z,2.70
2023-01-27T22:12:57.242Z,2.00
2023-01-27T22:15:23.630Z,2.10
2023-01-27T22:17:50.418Z,1.98
2023-01-27T22:20:17.720Z,2.38
2023-01-27T22:22:44.289Z,2.47
2023-01-27T22:25:12.968Z,2.55
2023-01-27T22:27:42.728Z,2.00
2023-01-27T22:30:12.803Z,2.08
2023-01-27T22:32:39.420Z,2.20
2023-01-27T22:35:06.409Z,2.15
2023-01-27T22:37:34.328Z,2.25
2023-01-27T22:40:00.822Z,2.17
2023-01-27T22:42:27.230Z,1.90
2023-01-27T22:44:53.666Z,1.98
2023-01-27T22:47:20.144Z,2.28
2023-01-27T22:49:46.530Z,1.85
2023-01-27T22:52:12.966Z,2.28
2023-01-27T22:54:40.814Z,2.05
2023-01-27T22:57:07.210Z,2.05
2023-01-27T22:59:33.725Z,1.88
2023-01-27T23:02:00.239Z,1.98
2023-01-27T23:04:26.671Z,1.83
2023-01-27T23:06:53.140Z,1.83
2023-01-27T23:09:19.559Z,2.10
2023-01-27T23:11:46.062Z,2.38
2023-01-27T23:14:12.446Z,1.90
2023-01-27T23:16:41.417Z,2.30
2023-01-27T23:19:07.891Z,2.38
2023-01-27T23:21:34.277Z,1.95
2023-01-27T23:24:00.763Z,2.15
2023-01-27T23:26:27.320Z,2.00
2023-01-27T23:28:53.723Z,2.17
2023-01-27T23:31:20.230Z,2.20
2023-01-27T23:33:48.068Z,1.60
2023-01-27T23:36:14.768Z,1.98
2023-01-27T23:38:41.276Z,1.60
2023-01-27T23:41:18.315Z,2.30
2023-01-27T23:43:45.612Z,2.15
2023-01-27T23:46:13.284Z,1.60
2023-01-27T23:48:39.721Z,1.65
2023-01-27T23:51:10.564Z,2.00
2023-01-27T23:53:37.043Z,2.08
2023-01-27T23:56:03.929Z,2.20
2023-01-27T23:58:30.404Z,1.90
